Time;durP1;ratioP1;P1;durP2;ratioP2;P2;SDS_P1;SDS_P2;PMS_P1;PMS_P2;Temp;Humidity;BMP_temperature;BMP_pressure;BME280_temperature;BME280_humidity;BME280_pressure;Samples;Min_cycle;Max_cycle;Signal;HPM_P1;HPM_P2
2022/08/05 00:01:00;;;;;;;10.20;1.10;;;20.00;99.90;;;;;;5017527;28;20194;-95
2022/08/05 00:03:51;;;;;;;1.70;0.90;;;19.80;99.90;;;;;;5018224;28;20310;-95
2022/08/05 00:06:28;;;;;;;1.67;0.60;;;19.70;99.90;;;;;;5017980;28;20190;-95
2022/08/05 00:12:28;;;;;;;6.37;1.20;;;19.60;99.90;;;;;;5016762;23;20250;-93
2022/08/05 00:15:00;;;;;;;1.00;0.70;;;19.60;99.90;;;;;;5009878;28;20304;-96
2022/08/05 00:17:53;;;;;;;12.73;1.57;;;19.50;99.90;;;;;;5010796;28;20265;-96
2022/08/05 00:20:34;;;;;;;1.90;0.70;;;19.30;99.90;;;;;;5012927;28;20282;-96
2022/08/05 00:23:42;;;;;;;4.90;0.70;;;19.30;99.90;;;;;;5010632;28;20221;-96
2022/08/05 00:26:36;;;;;;;1.63;0.70;;;19.30;99.90;;;;;;5009597;28;20234;-95
2022/08/05 00:29:23;;;;;;;0.90;0.47;;;19.40;99.90;;;;;;5004421;28;20210;-95
2022/08/05 00:32:02;;;;;;;1.50;0.90;;;19.40;99.90;;;;;;5006628;28;20218;-95
2022/08/05 00:34:44;;;;;;;1.77;0.80;;;19.50;99.90;;;;;;5298456;23;20205;-94
2022/08/05 00:37:40;;;;;;;1.77;0.70;;;19.50;99.90;;;;;;5027593;28;20230;-95
2022/08/05 00:40:33;;;;;;;0.73;0.70;;;19.60;99.90;;;;;;5030335;28;20271;-95
2022/08/05 00:43:18;;;;;;;1.23;0.63;;;19.60;99.90;;;;;;5034484;28;20210;-94
2022/08/05 00:46:03;;;;;;;1.43;0.60;;;19.80;99.90;;;;;;5031044;28;20228;-95
2022/08/05 00:48:34;;;;;;;0.80;0.60;;;19.60;99.90;;;;;;5026192;28;20234;-95
2022/08/05 00:51:30;;;;;;;0.87;0.60;;;19.50;99.90;;;;;;5021139;28;20245;-95
2022/08/05 00:54:22;;;;;;;1.80;0.70;;;19.60;99.90;;;;;;5029548;28;20273;-96
2022/08/05 00:57:00;;;;;;;0.93;0.50;;;19.70;99.90;;;;;;5025272;28;20209;-95
2022/08/05 00:59:39;;;;;;;2.53;0.80;;;19.70;99.90;;;;;;5025155;28;20217;-96
2022/08/05 01:05:06;;;;;;;0.73;0.53;;;19.60;99.90;;;;;;5023473;28;20237;-95
2022/08/05 01:11:04;;;;;;;6.53;0.90;;;19.60;99.90;;;;;;5029152;28;20213;-95
2022/08/05 01:14:00;;;;;;;5.23;0.80;;;19.60;99.90;;;;;;5024466;28;20212;-96
2022/08/05 01:19:41;;;;;;;1.27;0.67;;;19.60;99.90;;;;;;5029348;28;20205;-94
2022/08/05 01:22:53;;;;;;;1.20;0.67;;;19.50;99.90;;;;;;5022919;28;20245;-95
2022/08/05 01:25:39;;;;;;;1.80;0.60;;;19.40;99.90;;;;;;5021729;28;20233;-96
2022/08/05 01:28:44;;;;;;;2.30;0.70;;;19.30;99.90;;;;;;5030791;28;20208;-95
2022/08/05 01:31:22;;;;;;;4.13;0.70;;;19.20;99.90;;;;;;5022683;28;20209;-96
2022/08/05 01:37:16;;;;;;;1.13;0.70;;;19.40;99.90;;;;;;5031862;28;20221;-95
2022/08/05 01:39:55;;;;;;;1.77;0.50;;;19.40;99.90;;;;;;5018442;28;20213;-96
2022/08/05 01:45:31;;;;;;;2.83;0.70;;;19.40;99.90;;;;;;5017013;28;20244;-95
2022/08/05 01:48:13;;;;;;;1.13;0.60;;;19.20;99.90;;;;;;5021829;28;20193;-95
2022/08/05 01:53:45;;;;;;;187.90;12.17;;;18.90;99.90;;;;;;5028931;28;20277;-95
2022/08/05 01:59:43;;;;;;;3.83;0.80;;;18.90;99.90;;;;;;5029381;28;20206;-95
2022/08/05 02:02:29;;;;;;;1.40;0.87;;;18.80;99.90;;;;;;5020616;28;20209;-94
2022/08/05 02:07:54;;;;;;;5.67;0.87;;;18.70;99.90;;;;;;5028176;28;20209;-94
2022/08/05 02:14:03;;;;;;;0.70;0.70;;;18.70;99.90;;;;;;5026166;28;20216;-94
2022/08/05 02:16:41;;;;;;;2.30;0.80;;;18.80;99.90;;;;;;5031543;28;20244;-94
2022/08/05 02:19:21;;;;;;;2.87;0.60;;;18.70;99.90;;;;;;5027288;28;20206;-93
2022/08/05 02:22:16;;;;;;;1.10;0.80;;;18.70;99.90;;;;;;5031046;28;20241;-94
2022/08/05 02:25:06;;;;;;;1.20;0.73;;;18.60;99.90;;;;;;5018101;28;20653;-94
2022/08/05 02:27:49;;;;;;;1.40;0.90;;;18.60;99.90;;;;;;5017313;28;20216;-94
2022/08/05 02:30:36;;;;;;;0.63;0.53;;;18.60;99.90;;;;;;5018478;28;20201;-94
2022/08/05 02:33:24;;;;;;;1.33;1.00;;;18.60;99.90;;;;;;5036549;28;20209;-95
2022/08/05 02:48:04;;;;;;;1.40;1.07;;;18.30;99.90;;;;;;5039586;28;20255;-93
2022/08/05 02:53:42;;;;;;;0.93;0.87;;;18.20;99.90;;;;;;5037137;28;20232;-94
2022/08/05 02:56:19;;;;;;;0.93;0.63;;;18.20;99.90;;;;;;5040169;28;20197;-93
2022/08/05 02:58:54;;;;;;;0.80;0.70;;;18.10;99.90;;;;;;5039837;28;20281;-93
2022/08/05 03:12:48;;;;;;;1.83;1.10;;;17.80;99.90;;;;;;5035189;28;20198;-93
2022/08/05 03:15:25;;;;;;;3.20;0.90;;;17.70;99.90;;;;;;5035081;28;20213;-92
2022/08/05 03:35:19;;;;;;;1.00;0.90;;;17.30;99.90;;;;;;5033770;28;20220;-94
2022/08/05 03:37:53;;;;;;;2.43;0.90;;;17.20;99.90;;;;;;5030850;28;20228;-94
2022/08/05 03:43:23;;;;;;;6.30;0.90;;;17.10;99.90;;;;;;5034550;28;20224;-94
2022/08/05 03:49:52;;;;;;;1.23;0.83;;;16.80;99.90;;;;;;5034800;28;20210;-94
2022/08/05 03:52:27;;;;;;;2.07;1.10;;;16.70;99.90;;;;;;5032394;28;20213;-93
2022/08/05 03:55:26;;;;;;;1.23;0.90;;;16.60;99.90;;;;;;5030171;28;20265;-93
2022/08/05 03:58:23;;;;;;;2.13;1.10;;;16.60;99.90;;;;;;5033071;28;20288;-93
2022/08/05 04:01:03;;;;;;;1.17;0.90;;;16.40;99.90;;;;;;5029789;28;20221;-93
2022/08/05 04:06:45;;;;;;;4.50;1.33;;;16.20;99.90;;;;;;5030532;28;20296;-93
2022/08/05 04:12:26;;;;;;;1.43;1.17;;;16.00;99.90;;;;;;5030464;28;20240;-94
2022/08/05 04:17:49;;;;;;;3.70;1.40;;;15.80;99.90;;;;;;5029624;28;20197;-94
2022/08/05 04:20:29;;;;;;;2.10;1.60;;;15.70;99.90;;;;;;5024357;28;20236;-94
2022/08/05 04:23:14;;;;;;;1.37;1.13;;;15.60;99.90;;;;;;5028723;28;20205;-94
2022/08/05 04:25:47;;;;;;;1.93;1.30;;;15.60;99.90;;;;;;5027040;28;20232;-94
2022/08/05 04:28:29;;;;;;;3.17;2.00;;;15.50;99.90;;;;;;5028863;28;20219;-94
2022/08/05 04:34:16;;;;;;;3.17;1.20;;;15.40;99.90;;;;;;5024927;28;20212;-95
2022/08/05 04:37:03;;;;;;;1.87;1.30;;;15.30;99.90;;;;;;5030376;28;20217;-94
2022/08/05 04:39:51;;;;;;;2.67;1.20;;;15.20;99.90;;;;;;5028525;28;20209;-93
2022/08/05 04:42:26;;;;;;;2.00;1.30;;;15.10;99.90;;;;;;5027131;28;20304;-94
2022/08/05 04:44:58;;;;;;;1.50;0.93;;;15.10;99.90;;;;;;5022944;28;20209;-94
2022/08/05 04:47:31;;;;;;;2.60;1.47;;;15.10;99.90;;;;;;5020899;28;20256;-94
2022/08/05 04:50:12;;;;;;;1.37;1.27;;;15.10;99.90;;;;;;5023153;28;20220;-94
2022/08/05 04:53:03;;;;;;;2.07;1.07;;;15.00;99.90;;;;;;5022940;28;20260;-93
2022/08/05 04:55:48;;;;;;;1.60;1.10;;;15.00;99.90;;;;;;5026581;28;20244;-93
2022/08/05 05:04:06;;;;;;;1.20;1.00;;;15.00;99.90;;;;;;5027657;26;20225;-95
2022/08/05 05:06:42;;;;;;;2.27;1.33;;;14.90;99.90;;;;;;5028335;28;20233;-94
2022/08/05 05:09:21;;;;;;;1.77;1.10;;;14.90;99.90;;;;;;5031792;28;20214;-94
2022/08/05 05:11:55;;;;;;;1.50;0.90;;;14.90;99.90;;;;;;5020448;28;20244;-94
2022/08/05 05:14:31;;;;;;;1.70;1.00;;;14.90;99.90;;;;;;5017552;28;20666;-94
2022/08/05 05:17:06;;;;;;;1.10;0.97;;;14.90;99.90;;;;;;5021914;28;20660;-94
2022/08/05 05:19:40;;;;;;;1.83;1.20;;;14.80;99.90;;;;;;5020345;28;20749;-95
2022/08/05 05:22:16;;;;;;;0.80;0.80;;;14.80;99.90;;;;;;5015836;28;20297;-94
2022/08/05 05:24:55;;;;;;;1.10;0.80;;;14.70;99.90;;;;;;5018526;28;20251;-94
2022/08/05 05:27:47;;;;;;;1.47;1.30;;;14.70;99.90;;;;;;5018472;28;20244;-95
2022/08/05 05:30:25;;;;;;;1.83;1.10;;;14.80;99.90;;;;;;5017680;28;20220;-93
2022/08/05 05:32:59;;;;;;;1.93;1.20;;;14.80;99.90;;;;;;5018039;28;20290;-94
2022/08/05 05:35:46;;;;;;;2.20;1.27;;;14.80;99.90;;;;;;5021161;28;20276;-93
2022/08/05 05:38:18;;;;;;;3.13;1.40;;;14.90;99.90;;;;;;5017569;28;20228;-94
2022/08/05 05:40:57;;;;;;;1.30;1.20;;;14.80;99.90;;;;;;5019393;28;20209;-94
2022/08/05 05:43:51;;;;;;;2.43;1.40;;;14.80;99.90;;;;;;5030914;28;20205;-94
2022/08/05 05:49:29;;;;;;;2.30;1.27;;;14.80;99.90;;;;;;5035367;28;20205;-94
2022/08/05 05:52:04;;;;;;;1.43;1.20;;;14.70;99.90;;;;;;5030411;28;20273;-94
2022/08/05 05:57:21;;;;;;;2.27;1.37;;;14.60;99.90;;;;;;5024131;28;20213;-94
2022/08/05 06:00:14;;;;;;;2.80;1.53;;;14.60;99.90;;;;;;5030503;28;20202;-93
2022/08/05 06:05:44;;;;;;;1.73;1.37;;;14.40;99.90;;;;;;5035695;28;20221;-94
2022/08/05 06:08:26;;;;;;;2.30;1.50;;;14.30;99.90;;;;;;5038518;28;20276;-95
2022/08/05 06:11:02;;;;;;;1.90;1.50;;;14.30;99.90;;;;;;5039666;28;20268;-94
2022/08/05 06:16:20;;;;;;;2.17;1.30;;;14.30;99.90;;;;;;5036022;23;20240;-93
2022/08/05 06:19:01;;;;;;;2.40;1.43;;;14.20;99.90;;;;;;5020861;28;20218;-92
2022/08/05 06:21:37;;;;;;;2.53;1.60;;;14.20;99.90;;;;;;5019630;28;20197;-93
2022/08/05 06:32:43;;;;;;;2.17;1.50;;;14.00;99.90;;;;;;5405867;23;20211;-93
2022/08/05 06:35:15;;;;;;;2.43;1.57;;;13.90;99.90;;;;;;5058322;23;20267;-94
2022/08/05 06:38:07;;;;;;;3.53;1.53;;;13.90;99.90;;;;;;5024159;28;20667;-93
2022/08/05 06:40:41;;;;;;;2.43;1.67;;;13.80;99.90;;;;;;5022782;28;20222;-93
2022/08/05 06:43:14;;;;;;;1.80;1.50;;;13.80;99.90;;;;;;5023235;28;20217;-93
2022/08/05 06:46:05;;;;;;;1.87;1.77;;;13.70;99.90;;;;;;5022226;28;20315;-93
2022/08/05 06:48:38;;;;;;;1.90;1.80;;;13.60;99.90;;;;;;5023601;28;20242;-93
2022/08/05 06:51:31;;;;;;;2.00;1.73;;;13.60;99.90;;;;;;5035029;28;20217;-94
2022/08/05 06:54:05;;;;;;;3.23;1.83;;;13.60;99.90;;;;;;5023077;28;20221;-93
2022/08/05 06:56:42;;;;;;;3.20;1.80;;;13.60;99.90;;;;;;5026950;28;20201;-93
2022/08/05 06:59:32;;;;;;;2.57;2.10;;;13.50;99.90;;;;;;5038506;28;20218;-94
2022/08/05 07:02:08;;;;;;;2.27;2.00;;;13.50;99.90;;;;;;5022957;28;20213;-93
2022/08/05 07:04:41;;;;;;;2.73;1.93;;;13.50;99.90;;;;;;5023410;28;20209;-93
2022/08/05 07:07:14;;;;;;;2.97;1.87;;;13.50;99.90;;;;;;5020271;28;20244;-92
2022/08/05 07:10:05;;;;;;;2.90;1.93;;;13.40;99.90;;;;;;5022981;28;20570;-93
2022/08/05 07:18:32;;;;;;;3.80;2.03;;;13.40;99.90;;;;;;5022721;28;20248;-94
2022/08/05 07:21:07;;;;;;;2.20;2.00;;;13.40;99.90;;;;;;5020853;28;20213;-93
2022/08/05 07:23:39;;;;;;;2.57;1.90;;;13.30;99.90;;;;;;5021291;28;20202;-93
2022/08/05 07:26:21;;;;;;;2.17;1.80;;;13.20;99.90;;;;;;5023373;28;20311;-93
2022/08/05 07:28:55;;;;;;;3.63;1.80;;;13.30;99.90;;;;;;5021476;28;20256;-93
2022/08/05 07:31:29;;;;;;;2.50;2.30;;;13.30;99.90;;;;;;5027494;28;20273;-93
2022/08/05 07:34:20;;;;;;;4.37;2.93;;;13.20;99.90;;;;;;5021557;28;20268;-93
2022/08/05 07:37:00;;;;;;;2.67;2.10;;;13.20;99.90;;;;;;5020965;28;20220;-93
2022/08/05 07:39:31;;;;;;;2.13;1.93;;;13.20;99.90;;;;;;5031538;28;20206;-93
2022/08/05 07:42:29;;;;;;;2.50;1.90;;;13.10;99.90;;;;;;5032861;28;20260;-93
2022/08/05 07:45:06;;;;;;;2.53;2.30;;;13.10;99.90;;;;;;5032348;28;20201;-93
2022/08/05 07:47:42;;;;;;;1.97;1.80;;;13.10;99.90;;;;;;5033996;28;20297;-93
2022/08/05 07:50:24;;;;;;;2.57;2.37;;;13.00;99.90;;;;;;5026213;28;20193;-94
2022/08/05 07:53:09;;;;;;;2.20;2.00;;;13.10;99.90;;;;;;5016439;28;20329;-94
2022/08/05 07:55:42;;;;;;;2.67;2.37;;;13.10;99.90;;;;;;5001837;28;20217;-93
2022/08/05 07:58:34;;;;;;;2.10;1.80;;;13.00;99.90;;;;;;5001304;28;20210;-93
2022/08/05 08:01:27;;;;;;;2.30;2.03;;;13.00;99.90;;;;;;5001864;28;20242;-94
2022/08/05 08:03:59;;;;;;;3.07;2.40;;;12.90;99.90;;;;;;5005160;28;20217;-93
2022/08/05 08:06:31;;;;;;;2.63;2.33;;;12.90;99.90;;;;;;5016445;28;20209;-94
2022/08/05 08:09:06;;;;;;;3.53;2.73;;;12.90;99.90;;;;;;5018022;28;20257;-94
2022/08/05 08:11:43;;;;;;;4.93;2.00;;;12.80;99.90;;;;;;5017513;28;20240;-93
2022/08/05 08:14:23;;;;;;;2.70;2.10;;;12.80;99.90;;;;;;5017635;28;20210;-93
2022/08/05 08:16:55;;;;;;;2.93;2.03;;;12.80;99.90;;;;;;5003349;28;20710;-93
2022/08/05 08:19:26;;;;;;;2.53;2.10;;;12.80;99.90;;;;;;5000755;28;20206;-93
2022/08/05 08:22:18;;;;;;;3.57;2.30;;;12.80;99.90;;;;;;5003425;28;20238;-93
2022/08/05 08:24:58;;;;;;;2.30;2.10;;;12.90;99.90;;;;;;5018212;28;20304;-93
2022/08/05 08:27:36;;;;;;;3.00;2.00;;;12.90;99.90;;;;;;5017906;28;20605;-93
2022/08/05 08:30:17;;;;;;;2.47;2.00;;;12.90;99.90;;;;;;5016704;28;20224;-95
2022/08/05 08:33:08;;;;;;;2.23;1.70;;;12.90;99.90;;;;;;5017843;28;20597;-93
2022/08/05 08:35:43;;;;;;;2.20;2.00;;;12.90;99.90;;;;;;5020557;28;20511;-93
2022/08/05 08:38:36;;;;;;;2.37;1.83;;;12.90;99.90;;;;;;5026759;28;20206;-93
2022/08/05 08:41:15;;;;;;;2.63;1.80;;;12.90;99.90;;;;;;5036536;28;20202;-93
2022/08/05 08:43:48;;;;;;;2.47;2.00;;;12.80;99.90;;;;;;5037429;28;20189;-94
2022/08/05 08:46:39;;;;;;;2.93;2.00;;;12.80;99.90;;;;;;5036205;28;20190;-94
2022/08/05 08:49:14;;;;;;;2.27;1.80;;;12.80;99.90;;;;;;5019094;28;20269;-93
2022/08/05 08:52:13;;;;;;;2.33;2.00;;;12.70;99.90;;;;;;5017041;28;20209;-94
2022/08/05 08:54:46;;;;;;;2.47;1.97;;;12.70;99.90;;;;;;5017412;28;20573;-93
2022/08/05 08:57:20;;;;;;;2.17;1.90;;;12.70;99.90;;;;;;5018865;28;20213;-93
2022/08/05 09:00:00;;;;;;;2.63;1.87;;;12.70;99.90;;;;;;5017300;28;20206;-93
2022/08/05 09:02:34;;;;;;;2.53;2.10;;;12.60;99.90;;;;;;5016759;28;20299;-94
2022/08/05 09:05:12;;;;;;;2.53;2.20;;;12.50;99.90;;;;;;5017834;28;20379;-93
2022/08/05 09:07:48;;;;;;;2.67;2.03;;;12.50;99.90;;;;;;5017501;28;20237;-93
2022/08/05 09:10:27;;;;;;;3.20;2.50;;;12.50;99.90;;;;;;5016631;28;20295;-93
2022/08/05 09:13:00;;;;;;;4.33;2.40;;;12.50;99.90;;;;;;5017572;28;20224;-93
2022/08/05 09:15:35;;;;;;;2.43;2.23;;;12.40;99.90;;;;;;5018777;28;20223;-93
2022/08/05 09:18:09;;;;;;;3.00;2.23;;;12.40;99.90;;;;;;5019849;28;20213;-93
2022/08/05 09:20:43;;;;;;;2.50;2.30;;;12.30;99.90;;;;;;5016793;28;20214;-93
2022/08/05 09:23:16;;;;;;;3.67;2.10;;;12.40;99.90;;;;;;5017168;28;20296;-93
2022/08/05 09:25:53;;;;;;;2.37;2.07;;;12.30;99.90;;;;;;5018738;28;20236;-93
2022/08/05 09:28:36;;;;;;;2.57;2.20;;;12.40;99.90;;;;;;5016788;28;20299;-93
2022/08/05 09:31:10;;;;;;;2.43;2.23;;;12.40;99.90;;;;;;5019420;28;20209;-93
2022/08/05 09:34:05;;;;;;;2.80;2.00;;;12.40;99.90;;;;;;5017271;28;20300;-93
2022/08/05 09:36:48;;;;;;;5.40;2.20;;;12.40;99.90;;;;;;5017903;28;20292;-93
2022/08/05 09:39:28;;;;;;;2.60;2.13;;;12.40;99.90;;;;;;5016900;28;20209;-93
2022/08/05 09:42:16;;;;;;;2.60;1.97;;;12.30;99.90;;;;;;5018104;28;20298;-93
2022/08/05 09:45:08;;;;;;;1.90;1.80;;;12.30;99.90;;;;;;5020875;28;20217;-93
2022/08/05 09:47:59;;;;;;;2.53;1.87;;;12.30;99.90;;;;;;5021052;28;20265;-93
2022/08/05 09:50:37;;;;;;;3.37;1.80;;;12.40;99.90;;;;;;5022348;28;20213;-93
2022/08/05 09:53:14;;;;;;;2.13;1.67;;;12.30;99.90;;;;;;5008251;28;20654;-93
2022/08/05 09:56:06;;;;;;;3.23;2.10;;;12.40;99.90;;;;;;5000258;28;20233;-94
2022/08/05 09:58:42;;;;;;;2.37;1.80;;;12.30;99.90;;;;;;5000474;28;20370;-94
2022/08/05 10:01:22;;;;;;;6.00;1.90;;;12.20;99.90;;;;;;4999791;28;20550;-94
2022/08/05 10:06:39;;;;;;;3.27;1.87;;;12.10;99.90;;;;;;5019917;28;20228;-91
2022/08/05 10:09:24;;;;;;;3.03;2.17;;;12.00;99.90;;;;;;5020184;28;20320;-94
2022/08/05 10:12:10;;;;;;;1.97;1.87;;;12.00;99.90;;;;;;5019991;28;20650;-94
2022/08/05 10:15:23;;;;;;;2.30;2.10;;;12.00;99.90;;;;;;5022155;28;20213;-93
2022/08/05 10:18:18;;;;;;;4.10;2.13;;;11.90;99.90;;;;;;5037760;28;20212;-94
2022/08/05 10:20:52;;;;;;;2.37;2.10;;;11.90;99.90;;;;;;5038579;28;20213;-94
2022/08/05 10:23:26;;;;;;;2.33;2.10;;;11.90;99.90;;;;;;5025653;28;20249;-94
2022/08/05 10:26:18;;;;;;;2.60;2.00;;;11.90;99.90;;;;;;5019430;28;20241;-94
2022/08/05 10:29:01;;;;;;;2.60;2.30;;;11.90;99.90;;;;;;5019405;28;20280;-94
2022/08/05 10:31:33;;;;;;;2.93;2.40;;;11.90;99.90;;;;;;5019099;28;20210;-93
2022/08/05 10:34:27;;;;;;;2.33;2.13;;;11.90;99.90;;;;;;5020061;28;20237;-94
2022/08/05 10:37:01;;;;;;;2.77;2.33;;;11.90;99.90;;;;;;5019920;28;20213;-94
2022/08/05 10:39:38;;;;;;;2.90;2.03;;;11.90;99.90;;;;;;5019697;28;20236;-94
2022/08/05 10:42:30;;;;;;;2.33;2.13;;;11.90;99.90;;;;;;5019463;28;20229;-94
2022/08/05 10:45:05;;;;;;;3.77;2.37;;;11.90;99.90;;;;;;5019267;28;20284;-93
2022/08/05 10:47:52;;;;;;;3.20;2.47;;;11.80;99.90;;;;;;5019893;28;20213;-94
2022/08/05 10:51:02;;;;;;;6.27;2.60;;;11.80;99.90;;;;;;5020245;28;20236;-94
2022/08/05 10:53:55;;;;;;;2.90;2.37;;;11.80;99.90;;;;;;5020109;28;20555;-94
2022/08/05 10:56:47;;;;;;;2.70;2.47;;;11.80;99.90;;;;;;5020035;28;20209;-94
2022/08/05 10:59:27;;;;;;;3.07;2.77;;;11.70;99.90;;;;;;5019767;28;20236;-94
2022/08/05 11:02:19;;;;;;;4.40;2.50;;;11.70;99.90;;;;;;5018933;28;20272;-93
2022/08/05 11:05:11;;;;;;;2.67;2.30;;;11.70;99.90;;;;;;5020444;28;20216;-94
2022/08/05 11:08:03;;;;;;;2.80;2.60;;;11.70;99.90;;;;;;5019475;28;20209;-94
2022/08/05 11:10:55;;;;;;;3.37;2.50;;;11.70;99.90;;;;;;5019761;28;20293;-94
2022/08/05 11:13:43;;;;;;;4.63;2.83;;;11.60;99.90;;;;;;5020323;28;20233;-94
2022/08/05 11:16:27;;;;;;;3.07;2.73;;;11.60;99.90;;;;;;5020004;28;20217;-94
2022/08/05 11:19:30;;;;;;;2.33;1.90;;;11.60;99.90;;;;;;5021482;28;20209;-94
2022/08/05 11:22:43;;;;;;;3.00;2.47;;;11.60;99.90;;;;;;5031825;28;20597;-94
2022/08/05 11:26:01;;;;;;;3.97;2.73;;;11.50;99.90;;;;;;5037079;28;20249;-94
2022/08/05 11:28:49;;;;;;;2.83;2.40;;;11.50;99.90;;;;;;5035553;28;20278;-94
2022/08/05 11:31:22;;;;;;;2.57;2.37;;;11.50;99.90;;;;;;5025670;28;20267;-94
2022/08/05 11:34:14;;;;;;;3.73;2.67;;;11.40;99.90;;;;;;5024598;28;20237;-94
2022/08/05 11:36:55;;;;;;;3.13;2.23;;;11.40;99.90;;;;;;5024461;28;20206;-94
2022/08/05 11:39:51;;;;;;;3.87;2.50;;;11.40;99.90;;;;;;5019329;28;20232;-94
2022/08/05 11:42:35;;;;;;;5.70;2.30;;;11.40;99.90;;;;;;5018257;28;20297;-94
2022/08/05 11:45:11;;;;;;;3.20;2.20;;;11.40;99.90;;;;;;5019531;28;20229;-93
2022/08/05 11:48:10;;;;;;;3.27;2.70;;;11.50;99.90;;;;;;5018437;28;20255;-94
2022/08/05 11:50:44;;;;;;;2.97;2.50;;;11.50;99.90;;;;;;5018239;28;20219;-94
2022/08/05 11:53:18;;;;;;;6.23;2.70;;;11.50;99.90;;;;;;5018854;28;20217;-93
2022/08/05 11:56:01;;;;;;;5.07;2.53;;;11.50;99.90;;;;;;5018625;28;20639;-94
2022/08/05 11:58:39;;;;;;;3.83;2.77;;;11.50;99.90;;;;;;5018088;28;20292;-94
2022/08/05 12:01:27;;;;;;;2.90;2.60;;;11.50;99.90;;;;;;5019030;28;20325;-94
2022/08/05 12:03:58;;;;;;;3.67;2.60;;;11.50;99.90;;;;;;5017747;28;20214;-94
2022/08/05 12:06:30;;;;;;;3.90;2.77;;;11.50;99.90;;;;;;5017392;28;20233;-93
2022/08/05 12:09:03;;;;;;;5.00;2.77;;;11.40;99.90;;;;;;4999943;28;20337;-94
2022/08/05 12:11:35;;;;;;;3.90;2.40;;;11.40;99.90;;;;;;4997974;28;20291;-94
2022/08/05 12:14:11;;;;;;;3.90;2.80;;;11.40;99.90;;;;;;4998286;28;20297;-93
2022/08/05 12:16:47;;;;;;;5.50;2.90;;;11.40;99.90;;;;;;4999220;28;20249;-94
2022/08/05 12:19:22;;;;;;;5.67;2.80;;;11.40;99.90;;;;;;5001923;28;20214;-94
2022/08/05 12:22:13;;;;;;;5.37;2.83;;;11.30;99.90;;;;;;5019436;28;20225;-94
2022/08/05 12:24:50;;;;;;;4.47;2.63;;;11.30;99.90;;;;;;5037477;28;20201;-94
2022/08/05 12:27:22;;;;;;;3.13;2.83;;;11.20;99.90;;;;;;5036892;28;20205;-94
2022/08/05 12:30:28;;;;;;;3.87;2.77;;;11.30;99.90;;;;;;5037807;28;20219;-94
2022/08/05 12:33:01;;;;;;;4.63;3.13;;;11.20;99.90;;;;;;5037311;28;20202;-94
2022/08/05 12:35:54;;;;;;;4.77;2.87;;;11.20;99.90;;;;;;5037698;28;20193;-94
2022/08/05 12:38:26;;;;;;;3.80;2.57;;;11.30;99.90;;;;;;5037667;28;20221;-94
2022/08/05 12:41:00;;;;;;;6.37;3.50;;;11.30;99.90;;;;;;5037367;28;20198;-95
2022/08/05 12:43:53;;;;;;;4.97;2.87;;;11.20;99.90;;;;;;5037923;28;20209;-93
2022/08/05 12:46:28;;;;;;;4.50;2.87;;;11.20;99.90;;;;;;5031787;28;20690;-93
2022/08/05 12:49:07;;;;;;;5.80;2.80;;;11.30;99.90;;;;;;5018334;28;20247;-94
2022/08/05 12:51:47;;;;;;;4.03;2.90;;;11.20;99.90;;;;;;5018098;28;20608;-94
2022/08/05 12:54:39;;;;;;;5.47;3.10;;;11.20;99.90;;;;;;5034450;23;20332;-94
2022/08/05 12:57:12;;;;;;;4.47;3.03;;;11.30;99.90;;;;;;4998182;28;20218;-94
2022/08/05 12:59:48;;;;;;;5.33;2.97;;;11.20;99.90;;;;;;4998682;28;20301;-94
2022/08/05 13:02:42;;;;;;;6.47;3.47;;;11.20;99.90;;;;;;4999187;28;20285;-94
2022/08/05 13:05:20;;;;;;;4.37;3.47;;;11.20;99.90;;;;;;4982085;28;20210;-94
2022/08/05 13:07:51;;;;;;;4.73;3.50;;;11.20;99.90;;;;;;4999440;28;20205;-94
2022/08/05 13:10:32;;;;;;;4.73;3.60;;;11.20;99.90;;;;;;5016595;28;20238;-94
2022/08/05 13:13:07;;;;;;;5.20;3.37;;;11.30;99.90;;;;;;5017356;28;20238;-94
2022/08/05 13:15:59;;;;;;;6.50;3.37;;;11.30;99.90;;;;;;5052256;23;20260;-93
2022/08/05 13:18:41;;;;;;;4.37;3.50;;;11.20;99.90;;;;;;5023671;28;20201;-93
2022/08/05 13:21:12;;;;;;;5.57;3.63;;;11.20;99.90;;;;;;5020438;28;20279;-93
2022/08/05 13:23:43;;;;;;;5.03;3.73;;;11.20;99.90;;;;;;5024819;28;20260;-94
2022/08/05 13:26:25;;;;;;;8.83;3.80;;;11.30;99.90;;;;;;5033792;28;20213;-93
2022/08/05 13:28:59;;;;;;;6.30;3.90;;;11.30;99.90;;;;;;5036789;28;20196;-93
2022/08/05 13:31:30;;;;;;;5.20;4.17;;;11.30;99.90;;;;;;5036420;28;20304;-94
2022/08/05 13:34:24;;;;;;;4.47;3.77;;;11.30;99.90;;;;;;5037237;28;20194;-93
2022/08/05 13:36:56;;;;;;;6.93;4.10;;;11.30;99.90;;;;;;5034905;28;20213;-93
2022/08/05 13:39:27;;;;;;;4.17;3.70;;;11.30;99.90;;;;;;5021012;28;20232;-93
2022/08/05 13:42:18;;;;;;;7.73;3.67;;;11.30;99.90;;;;;;5018644;28;20237;-93
2022/08/05 13:44:53;;;;;;;5.80;3.77;;;11.30;99.90;;;;;;5019483;28;20333;-92
2022/08/05 13:47:29;;;;;;;9.63;3.70;;;11.40;99.90;;;;;;5017194;28;20224;-95
2022/08/05 13:50:23;;;;;;;4.60;3.77;;;11.40;99.90;;;;;;5016209;28;20236;-93
2022/08/05 13:52:54;;;;;;;5.77;3.80;;;11.50;99.90;;;;;;5018048;28;20229;-92
2022/08/05 13:55:25;;;;;;;9.13;3.73;;;11.50;99.90;;;;;;5032740;28;20209;-92
2022/08/05 13:58:11;;;;;;;5.63;4.17;;;11.60;99.90;;;;;;5036882;28;20213;-93
2022/08/05 14:00:59;;;;;;;8.97;3.97;;;11.60;99.90;;;;;;5035720;28;20194;-92
2022/08/05 14:03:31;;;;;;;9.80;4.40;;;11.70;99.90;;;;;;5033101;28;20209;-93
2022/08/05 14:06:05;;;;;;;5.73;4.23;;;11.70;99.90;;;;;;5017039;28;20224;-93
2022/08/05 14:08:56;;;;;;;7.93;3.83;;;11.80;99.90;;;;;;5017534;28;20276;-93
2022/08/05 14:11:29;;;;;;;6.67;4.57;;;11.90;99.90;;;;;;5016447;28;20237;-92
2022/08/05 14:14:02;;;;;;;6.77;4.60;;;11.90;99.90;;;;;;5016739;28;20208;-94
2022/08/05 14:16:33;;;;;;;8.33;5.03;;;12.00;99.90;;;;;;5016695;28;20214;-92
2022/08/05 14:19:05;;;;;;;8.90;5.90;;;12.00;99.90;;;;;;5024038;28;20207;-92
2022/08/05 14:21:40;;;;;;;7.50;4.90;;;12.00;99.90;;;;;;5015617;28;20206;-93
2022/08/05 14:24:32;;;;;;;7.70;5.70;;;12.10;99.90;;;;;;5007159;28;20206;-94
2022/08/05 14:27:04;;;;;;;8.33;5.17;;;12.20;99.90;;;;;;5016216;28;20242;-93
2022/08/05 14:29:47;;;;;;;11.03;5.23;;;12.20;99.90;;;;;;5000252;28;20210;-94
2022/08/05 14:32:21;;;;;;;7.67;5.40;;;12.30;99.90;;;;;;5000573;28;20218;-93
2022/08/05 14:34:56;;;;;;;9.47;4.93;;;12.30;99.90;;;;;;5001490;28;20210;-93
2022/08/05 14:37:29;;;;;;;8.30;5.70;;;12.40;99.90;;;;;;5000822;28;20234;-93
2022/08/05 14:40:17;;;;;;;10.77;5.40;;;12.40;99.90;;;;;;5000880;28;20202;-93
2022/08/05 14:42:53;;;;;;;7.30;5.20;;;12.50;99.90;;;;;;5001063;28;20218;-93
2022/08/05 14:45:25;;;;;;;6.07;4.83;;;12.40;99.90;;;;;;5001400;28;20210;-93
2022/08/05 14:47:56;;;;;;;7.70;5.37;;;12.50;99.90;;;;;;5000053;28;20230;-93
2022/08/05 14:50:35;;;;;;;7.67;5.23;;;12.50;99.90;;;;;;4999416;28;20238;-93
2022/08/05 14:53:14;;;;;;;8.93;5.10;;;12.60;99.90;;;;;;5000083;28;20639;-93
2022/08/05 14:55:46;;;;;;;7.53;5.53;;;12.70;99.90;;;;;;5009614;28;20214;-93
2022/08/05 14:58:21;;;;;;;8.30;5.17;;;12.80;99.90;;;;;;5000003;28;20229;-93
2022/08/05 15:00:53;;;;;;;12.87;5.10;;;12.90;99.90;;;;;;5006344;28;20218;-94
2022/08/05 15:03:30;;;;;;;9.10;4.50;;;13.10;99.90;;;;;;5013946;28;20233;-94
2022/08/05 15:06:09;;;;;;;6.63;4.73;;;13.30;99.90;;;;;;5014552;28;20205;-94
2022/08/05 15:08:50;;;;;;;8.00;3.70;;;13.50;99.90;;;;;;5016446;28;20218;-92
2022/08/05 15:11:42;;;;;;;6.67;4.50;;;13.70;99.90;;;;;;5013878;28;20230;-94
2022/08/05 15:17:33;;;;;;;7.60;4.30;;;14.30;99.90;;;;;;5015239;28;20210;-94
2022/08/05 15:23:05;;;;;;;9.97;3.83;;;14.50;99.90;;;;;;5010805;28;20210;-93
2022/08/05 15:25:51;;;;;;;5.70;3.67;;;14.60;99.90;;;;;;5008051;28;20210;-94
2022/08/05 15:31:22;;;;;;;8.00;3.90;;;14.60;99.90;;;;;;5010051;28;20238;-94
2022/08/05 15:34:12;;;;;;;5.97;4.03;;;14.70;99.90;;;;;;5012042;28;20206;-94
2022/08/05 15:37:04;;;;;;;5.93;3.70;;;14.90;99.90;;;;;;5012943;28;20238;-93
2022/08/05 15:39:45;;;;;;;8.00;3.37;;;14.80;99.90;;;;;;4998398;28;20681;-93
2022/08/05 15:42:42;;;;;;;10.17;3.10;;;15.00;99.90;;;;;;5011305;28;20626;-94
2022/08/05 15:45:29;;;;;;;5.13;3.37;;;15.20;99.90;;;;;;5009109;28;20210;-93
2022/08/05 15:51:21;;;;;;;5.40;2.83;;;15.50;99.90;;;;;;5009386;28;20240;-93
2022/08/05 15:54:15;;;;;;;7.77;3.10;;;15.50;99.90;;;;;;5011399;28;20221;-93
2022/08/05 15:56:49;;;;;;;4.83;2.90;;;15.40;99.90;;;;;;5001440;28;20217;-93
2022/08/05 15:59:23;;;;;;;5.57;3.33;;;15.50;99.90;;;;;;4998326;28;20210;-93
2022/08/05 16:01:58;;;;;;;6.13;2.70;;;15.50;99.90;;;;;;4998010;28;20206;-95
2022/08/05 16:04:30;;;;;;;4.10;2.50;;;15.70;99.90;;;;;;4998422;28;20210;-94
2022/08/05 16:07:01;;;;;;;4.80;2.80;;;15.80;99.90;;;;;;4998901;28;20223;-94
2022/08/05 16:09:35;;;;;;;3.53;2.53;;;15.90;99.90;;;;;;4998795;28;20206;-94
2022/08/05 16:12:11;;;;;;;6.23;2.80;;;16.00;99.90;;;;;;4997777;28;20238;-93
2022/08/05 16:14:46;;;;;;;4.73;2.70;;;15.90;99.90;;;;;;4998479;28;20214;-93
2022/08/05 16:17:18;;;;;;;5.27;2.53;;;16.00;99.90;;;;;;5018761;28;20228;-93